Joaquín Quiroga

Olheiro-Chefe - San Lorenzo
3 Dez 2028
Domingo
Processo

Personalidade

Adaptabilidade (5) Ambição (11) Controvérsia (3) Lealdade (6) Pressão (13) Profissionalismo (7) Espírito Esportivo (18) Temperamento (16)

Perfil

Estilo de Treinamento Democrático
Licença Nacional B
Determinação 14
Gestão de Pessoas 10
Motivação 5
Disciplina 11
Satisfação no Trabalho
100%
Fadiga
0%
Função Olheiro-Chefe
Salário 104.3K p/s
Contrato 14.03.2029

Desempenho

Comportamento Bom
Eficácia do Treinamento
40%
Desenvolvimento do Jogador
35%
Prevenção de Lesões
65%
Implementação Tática
45%

Eventos Recentes

Participou de uma reunião de recrutamento agora
Participou de uma reunião de recrutamento agora
Avaliou um jogador agora
Avaliou um jogador agora
Avaliou um jogador 7d atrás
Avaliou um jogador 7d atrás
Avaliou um jogador 7d atrás
Avaliou um jogador 7d atrás

Monitorando agora

223
Jogador Clube Status Habilidade Confiança Observado Última observação Último voto
Patricio Moyano Defensores Ativo 117 / 122 40% 4 30.11.2028 -
Matko Miljevic Racing Club Ativo 122 / 135 40% 2 30.11.2028 -
Lautaro Giaccone Argentinos Juniors Ativo 135 / 123 40% 5 29.11.2028 -
Julián Palacios Envigado Ativo 133 / 117 40% 1 29.11.2028 -
Juan Velázquez Belgrano Ativo 128 / 124 40% 4 28.11.2028 -
Matías Satas Grimsby Town Ativo 111 / 113 40% 4 28.11.2028 -
Máximo Munarriz San Telmo Ativo 99 / 107 40% 2 28.11.2028 -
Jonathan David Atalanta Ativo 155 / 161 40% 1 28.11.2028 -
Imanol Machuca Independiente Ativo 122 / 133 40% 4 26.11.2028 -
Jaminton Campaz Rosario Central Ativo 140 / 128 40% 3 26.11.2028 -
Santiago Solari Racing Club Ativo 131 / 123 40% 3 25.11.2028 -
Jeremías Merlo Gimnasia La Plata Ativo 113 / 123 40% 4 25.11.2028 -
Ramiro Hernandes Belgrano Ativo 118 / 129 40% 4 21.11.2028 -
Iñaki Larthirigoyen San Telmo Ativo 112 / 115 40% 4 21.11.2028 -
Celías Ingenthron Platense Ativo 112 / 124 40% 3 21.11.2028 -
Harrison Armstrong Ipswich Town Ativo 150 / 139 40% 2 21.11.2028 -
Mateo Faure BATE Ativo 88 / 95 40% 1 20.11.2028 -
Gustavo Vázquez Sumgayit Ativo 111 / 100 40% 1 20.11.2028 -
Franco Orozco Lanús Ativo 136 / 122 40% 3 19.11.2028 -
Christos Mouzakitis Hull City Ativo 136 / 145 40% 1 17.11.2028 -
Luca Langoni Columbus Crew Ativo 136 / 133 40% 6 13.11.2028 -
Daniel Barrea Godoy Cruz Ativo 134 / 119 40% 6 13.11.2028 -
Tomás Conechny Racing Club Ativo 122 / 127 40% 2 12.11.2028 -
Giovanni Leoni Lincoln City Ativo 149 / 156 40% 1 12.11.2028 -
Daniel Banjaqui Benfica Ativo 129 / 133 40% 1 12.11.2028 -
Ayyoub Bouaddi Stoke City Ativo 156 / 164 40% 2 10.11.2028 -
Trey Nyoni Rotherham United Ativo 146 / 155 40% 1 10.11.2028 -
Gideon Manaseh Ikorodu City Ativo 92 / 106 40% 2 07.11.2028 -
Agustín Colazo Unión de Santa Fe Ativo 127 / 127 40% 2 07.11.2028 -
Joaquín Gho Argentinos Juniors Ativo 141 / 128 40% 1 07.11.2028 -
Axel Tape Bayer Leverkusen Ativo 146 / 148 40% 1 07.11.2028 -
Franco Watson Lanús Ativo 137 / 119 40% 1 04.11.2028 -
Bruno Leyes Godoy Cruz Ativo 123 / 126 40% 3 02.11.2028 -
Mateo Caballero Defensor Sporting Ativo 114 / 109 40% 1 02.11.2028 -
Hian Rincón Once Caldas Ativo 85 / 96 40% 1 02.11.2028 -
Elías Cabrera Vélez Ativo 133 / 133 40% 1 01.11.2028 -
Alejo Dramisino Atlanta Ativo 117 / 123 40% 3 30.10.2028 -
Soma Anzai FC Tokyo Ativo 109 / 131 40% 1 30.10.2028 -
Vicente Poggi Godoy Cruz Ativo 117 / 123 40% 2 28.10.2028 -
Agustín Sández Newell's Old Boys Ativo 130 / 128 40% 1 28.10.2028 -
Manuel Duarte Barracas Central Ativo 128 / 119 40% 3 26.10.2028 -
Gonzalo Plata Nacional Ativo 153 / 143 40% 3 26.10.2028 -
Lisandro Piñero Banfield Ativo 135 / 130 40% 1 23.10.2028 -
Honest Ahanor Atalanta Ativo 139 / 148 40% 2 21.10.2028 -
John Córdoba Millonarios Ativo 112 / 113 40% 2 20.10.2028 -
Guillermo Balzi Newell's Old Boys Ativo 112 / 115 40% 4 20.10.2028 -
Matías Ramírez Godoy Cruz Ativo 110 / 117 40% 2 18.10.2028 -
Azizbek To'lqinbekov Bunyodkor Ativo 98 / 112 40% 2 18.10.2028 -
Luis Palacios Once Caldas Ativo 111 / 126 40% 1 18.10.2028 -
Tomás O'Connor Gimnasia y Esgrima Ativo 126 / 119 40% 1 16.10.2028 -
Jan Cedilnik Chikhura Ativo 91 / 92 40% 1 16.10.2028 -
Samuel Molano Patriotas Ativo 89 / 98 40% 1 15.10.2028 -
Chris Rigg West Ham United Ativo 150 / 151 40% 1 14.10.2028 -
Santino Baldassarri Orenburg Ativo 97 / 84 40% 1 13.10.2028 -
Samuel Córdoba Depor Ativo 76 / 95 40% 1 13.10.2028 -
Tomás Pozzo Godoy Cruz Ativo 115 / 129 40% 2 10.10.2028 -
Jefry Zapata Aldosivi Ativo 109 / 116 40% 1 10.10.2028 -
Alan Lescano Argentinos Juniors Negociando 124 / 137 40% 2 09.10.2028 -
Toni Fruk Talleres Ativo 152 / 145 40% 1 09.10.2028 -
Matías Zaracho Racing Club Ativo 137 / 132 40% 2 06.10.2028 -
Lucas Camejo River Plate Ativo 95 / 95 40% 1 04.10.2028 -
Alejandro Almaraz NK Celje Ativo 103 / 128 40% 1 04.10.2028 -
Guille Rosas Boca Juniors Ativo 154 / 153 40% 3 30.09.2028 -
Ismaël Bennacer Boca Juniors Ativo 137 / 144 40% 2 25.09.2028 -
Santiago Longo Belgrano Ativo 115 / 122 40% 3 14.09.2028 -
Gastón Martirena Racing Club Ativo 119 / 137 40% 1 14.09.2028 -
Facundo Lencioni Gimnasia y Esgrima Ativo 130 / 128 40% 1 07.09.2028 -
Adrián Sánchez Belgrano Ativo 127 / 117 40% 2 06.09.2028 -
Yuber Quiñónes Patriotas Ativo 110 / 116 40% 1 05.09.2028 -
Aarón Molinas Defensa y Justicia Ativo 134 / 129 40% 2 04.09.2028 -
Tiago Palacios Estudiantes Ativo 128 / 133 40% 1 03.09.2028 -
Franco Zapiola Platense Ativo 132 / 125 40% 1 28.08.2028 -
Clemente Montes Santiago Wanderers Ativo 118 / 129 40% 1 28.08.2028 -
Unai Gómez Udinese Ativo 141 / 148 40% 1 20.08.2028 -
Tommaso Barbieri Cremonese Ativo 139 / 139 40% 1 20.08.2028 -
Devyne Rensch Virtus Entella Ativo 161 / 156 40% 2 19.08.2028 -
Lazar Samardžić Cagliari Ativo 165 / 152 40% 1 19.08.2028 -
Camillo Tavernelli Arezzo Ativo 131 / 129 40% 1 17.08.2028 -
Zito Luvumbo Cagliari Ativo 137 / 138 40% 5 16.08.2028 -
Giuseppe Caso Modena Ativo 141 / 129 40% 1 16.08.2028 -
Kristian Thorstvedt Sassuolo Ativo 149 / 144 40% 1 13.08.2028 -
Sebastiano Esposito Cagliari Ativo 158 / 145 40% 3 11.08.2028 -
Armand Laurienté Sassuolo Ativo 141 / 139 40% 1 11.08.2028 -
Cucho Hernández Granada Ativo 158 / 146 40% 1 09.08.2028 -
Matteo Ruggeri Middlesbrough Ativo 150 / 156 40% 1 09.08.2028 -
William Osula Wrexham Ativo 145 / 142 40% 10 07.08.2028 -
Marcel Ruiz Crystal Palace Ativo 151 / 149 40% 1 07.08.2028 -
Rodrigo Muniz Fulham Ativo 136 / 147 40% 4 09.06.2028 -
Jayden Danns Bradford City Ativo 145 / 142 40% 6 09.06.2028 -
Andrey Ivlev Nizhniy Novgorod Ativo 130 / 107 40% 1 01.06.2028 -
Brandon Thomas-Asante Blackpool Ativo 134 / 125 40% 3 30.05.2028 -
Giacomo Raspadori Atalanta Ativo 146 / 144 40% 4 29.05.2028 Observar
Tyreece Campbell Charlton Athletic Ativo 123 / 124 40% 3 29.05.2028 -
Taiwo Awoniyi Middlesbrough Ativo 147 / 135 40% 3 28.05.2028 -
Tyrese Campbell Sheffield United Ativo 137 / 136 40% 2 27.05.2028 -
Thiago Brentford Ativo 147 / 147 40% 7 23.05.2028 -
Yousef Salech Cardiff City Ativo 129 / 127 40% 2 23.05.2028 -
Aaron Collins Milton Keynes Dons Ativo 133 / 126 40% 4 21.05.2028 -
Callum O'Hare Sheffield United Ativo 139 / 130 40% 3 19.05.2028 -
Ismaïla Sarr Crystal Palace Ativo 156 / 160 40% 7 17.05.2028 -
Nicolas Jackson Aston Villa Ativo 157 / 144 40% 3 14.05.2028 -
Mohamed-Ali Cho Hull City Ativo 155 / 137 40% 8 07.05.2028 -
Georginio Rutter Brighton Ativo 158 / 155 40% 6 05.05.2028 -
Dwight McNeil Crystal Palace Ativo 142 / 144 40% 3 04.05.2028 -
Jarrod Bowen West Ham United Ativo 149 / 158 40% 1 29.04.2028 -
Fábio Carvalho Brentford Ativo 139 / 141 40% 2 28.04.2028 -
Eddie Nketiah Crystal Palace Ativo 140 / 140 40% 2 24.04.2028 -
Tammy Abraham Aston Villa Ativo 158 / 151 40% 2 10.04.2028 -
Patrick Agyemang Derby County Ativo 129 / 131 40% 2 25.03.2028 -
Evann Guessand Aston Villa Ativo 150 / 153 40% 3 23.03.2028 -
Jay Stansfield Birmingham Ativo 141 / 133 40% 1 05.03.2028 -
Aune Heggebø West Bromwich Albion Ativo 129 / 135 40% 1 02.03.2028 -
Lorenzo Colombo Genoa Ativo 138 / 144 40% 2 27.02.2028 -
Largie Ramazani Leeds United Ativo 155 / 138 40% 1 26.02.2028 -
Pablo Felipe West Ham United Ativo 143 / 143 40% 1 23.02.2028 -
Santiago Pierotti Lecce Ativo 145 / 142 40% 2 20.02.2028 -
Mitchel Bakker Modena Ativo 129 / 134 40% 3 14.06.2027 -
Amin Sarr Hellas Verona Ativo 136 / 130 40% 1 01.06.2027 -
André-Franck Zambo Anguissa Napoli Ativo 153 / 154 40% 6 28.05.2027 -
Alessandro Buongiorno Cagliari Ativo 148 / 161 40% 2 28.05.2027 -
Curtis Jones Inter Ativo 165 / 160 40% 3 25.05.2027 -
Raoul Bellanova Atalanta Ativo 152 / 154 40% 5 24.05.2027 -
Ilyas Ansah Hull City Ativo 127 / 139 40% 1 23.05.2027 -
Lucas Da Cunha Como Ativo 150 / 144 40% 3 21.05.2027 -
Carlos Augusto Inter Ativo 142 / 154 40% 1 18.05.2027 -
Jordan Zemura Udinese Ativo 138 / 128 40% 2 17.05.2027 -
Evan N'Dicka AS Roma Ativo 165 / 155 40% 5 13.05.2027 -
Diego Gómez Brighton Ativo 142 / 146 40% 3 13.05.2027 -
Nuno Tavares Lazio Ativo 143 / 145 40% 1 11.05.2027 -
Teboho Mokoena Mamelodi Sundowns Ativo 125 / 145 40% 1 09.05.2027 -
Mehdi Dorval Catanzaro Ativo 130 / 134 40% 1 06.05.2027 -
Lewis Ferguson Bologna Ativo 142 / 142 40% 2 05.05.2027 -
Billy Gilmour Napoli Ativo 140 / 152 40% 1 01.05.2027 -
Ferland Mendy Real Madrid Ativo 134 / 142 40% 4 27.04.2027 -
Pervis Estupiñán AC Milan Ativo 153 / 136 40% 2 26.04.2027 -
Alessandro Bastoni Inter Ativo 175 / 159 40% 1 26.04.2027 -
Enrico Delprato Parma Ativo 134 / 136 40% 1 21.04.2027 -
Savinho Tottenham Ativo 166 / 162 40% 1 20.04.2027 -
Thierry Rendall Correia Venezia Ativo 130 / 141 40% 1 14.04.2027 -
Rolando Mandragora Torino Ativo 149 / 148 40% 1 05.04.2027 -
Manu Koné AS Roma Ativo 167 / 163 40% 4 28.03.2027 -
Kyle Walker-Peters West Ham United Ativo 138 / 142 40% 1 27.03.2027 -
Jarrad Branthwaite Everton Ativo 151 / 152 40% 5 22.03.2027 -
Dennis Cirkin Queens Park Rangers Ativo 125 / 128 40% 3 22.03.2027 -
Olivier Boscagli Brighton Ativo 154 / 150 40% 2 19.03.2027 -
Tino Livramento Newcastle United Ativo 155 / 152 40% 2 19.03.2027 -
Jacques Ekomié Wrexham Ativo 136 / 137 40% 1 18.03.2027 -
Xaver Schlager Nottingham Forest Ativo 154 / 143 40% 1 17.03.2027 -
Jacob Greaves Ipswich Town Ativo 146 / 130 40% 4 14.03.2027 -
Dara O'Shea Ipswich Town Ativo 146 / 130 40% 4 13.03.2027 -
Ian Maatsen Aston Villa Ativo 160 / 150 40% 1 12.03.2027 -
Lewis Hall Newcastle United Ativo 148 / 145 40% 1 11.03.2027 -
Chris Mepham West Bromwich Albion Ativo 139 / 129 40% 1 10.03.2027 -
Amadou Onana Aston Villa Ativo 152 / 148 40% 3 08.03.2027 -
Ryan Sessegnon Fulham Ativo 140 / 141 40% 1 07.03.2027 -
Nordi Mukiele Sunderland Ativo 134 / 151 40% 1 05.03.2027 -
Max Johnston Derby County Ativo 121 / 133 40% 2 02.03.2027 -
Jordan Lotomba Bloemfontein Celtic Ativo 121 / 136 40% 1 02.03.2027 -
Jake O'Brien Everton Ativo 154 / 148 40% 2 28.02.2027 -
Kenny Tete Fulham Ativo 135 / 144 40% 2 20.02.2027 -
Óscar Mingueza Crystal Palace Ativo 156 / 148 40% 1 17.02.2027 -
Harry Clarke Preston Ativo 135 / 126 40% 1 16.02.2027 -
Boubacar Kamara Aston Villa Ativo 173 / 161 40% 1 16.02.2027 -
Ousmane Diomande Nottingham Forest Ativo 153 / 155 40% 2 12.02.2027 -
Álex Centelles Levski Ativo 134 / 120 40% 1 11.02.2027 -
Pedro Porro Tottenham Ativo 147 / 146 40% 1 09.02.2027 -
Alex Scott Bournemouth Ativo 145 / 148 40% 1 08.02.2027 -
Florentino Luís Ipswich Town Ativo 153 / 145 40% 3 05.02.2027 -
Mats Wieffer Brighton Ativo 158 / 143 40% 1 05.02.2027 -
Hidemasa Morita Hull City Ativo 148 / 143 40% 1 03.02.2027 -
Anel Ahmedhodžić Burnley Ativo 144 / 129 40% 1 01.02.2027 -
Fiete Arp OB Ativo 128 / 121 40% 1 02.12.2026 -
Bertrand Traoré Sunderland Ativo 138 / 130 40% 1 28.11.2026 -
Manu Morlanes Mallorca Ativo 141 / 137 40% 3 26.11.2026 -
Toti Wolverhampton Ativo 128 / 139 40% 1 25.11.2026 -
Germán Berterame Inter Miami CF Ativo 134 / 130 40% 2 24.11.2026 -
Oli McBurnie Hull City Ativo 131 / 142 40% 2 24.11.2026 -
Finn Azaz Southampton Ativo 135 / 121 40% 1 22.11.2026 -
Jens Petter Hauge Bodo/Glimt Ativo 121 / 132 40% 1 16.11.2026 -
Andrea Pinamonti Lazio Ativo 128 / 130 40% 1 12.11.2026 -
Mads Hermansen West Ham United Ativo 130 / 129 40% 1 08.11.2026 -
Max Bird Birmingham Ativo 120 / 123 40% 1 01.11.2026 -
Reda Khadra Qarabag Ativo 129 / 126 40% 1 27.10.2026 -
Aidan Morris Middlesbrough Ativo 124 / 131 40% 1 27.10.2026 -
Alexey Miranchuk Atlanta United FC Ativo 137 / 137 40% 6 25.10.2026 -
Tyrhys Dolan Espanyol Ativo 142 / 134 40% 2 24.10.2026 -
Sergi Cardona KAA Gent Ativo 141 / 143 40% 1 21.10.2026 -
Pedrinho Shakhtar Ativo 137 / 130 40% 2 20.10.2026 -
Leroy Sané Galatasaray Ativo 155 / 156 40% 1 19.10.2026 -
Jack Rudoni Coventry City Ativo 129 / 131 40% 1 15.10.2026 -
Steven Bergwijn Al-Ittihad Ativo 158 / 151 40% 2 09.10.2026 -
Fernando Gorriarán Tigres Ativo 144 / 137 40% 4 07.10.2026 -
Ayrton Costa Boca Juniors Ativo 131 / 129 40% 1 06.10.2026 -
Martín Ojeda Orlando City Ativo 134 / 140 40% 5 05.10.2026 -
Carlos Rodríguez Cruz Azul Ativo 128 / 131 40% 1 03.10.2026 -
Alejandro Zendejas Club America Ativo 130 / 138 40% 3 25.09.2026 -
Ritsu Doan Gamba Osaka Ativo 152 / 148 40% 1 23.09.2026 -
Luis Romo Guadalajara Ativo 149 / 135 40% 1 21.09.2026 -
Richard Ledezma Guadalajara Ativo 127 / 131 40% 2 20.09.2026 -
Carlos Rotondi Cruz Azul Ativo 132 / 134 40% 2 20.09.2026 -
Erik Lira Cruz Azul Ativo 128 / 140 40% 3 19.09.2026 -
Carlos Forbs Club Brugge Ativo 122 / 133 40% 1 16.09.2026 -
Sebastián Córdova Pumas UNAM Ativo 128 / 132 40% 2 15.09.2026 -
Cristian Espinoza Nashville SC Ativo 140 / 135 40% 1 13.09.2026 -
Ryan Gauld Vancouver Whitecaps Ativo 143 / 132 40% 2 12.09.2026 -
Ortwin De Wolf KV Mechelen Ativo 129 / 129 40% 1 07.09.2026 -
Ander Guevara Racing Genk Ativo 126 / 134 40% 2 05.09.2026 -
Jesús Orozco Chiquete Cruz Azul Ativo 133 / 128 40% 1 05.09.2026 -
Rico Henry River Plate Ativo 144 / 136 40% 1 01.09.2026 -
Agustín Palavecino Cruz Azul Ativo 133 / 141 40% 1 28.08.2026 -
Ollie Watkins Al-Hilal Ativo 131 / 147 40% 1 23.08.2026 -
Jesús Angulo Tigres Ativo 136 / 138 40% 2 18.08.2026 -
Aníbal Moreno River Plate Ativo 144 / 135 40% 1 18.08.2026 -
Matt Miazga FC Cincinnati Ativo 133 / 125 40% 1 18.08.2026 -
Diego Rossi Monterrey Ativo 132 / 131 40% 1 14.08.2026 -
Pau Víctor Braga Ativo 128 / 135 40% 1 13.08.2026 -
Guus Til PSV Ativo 153 / 139 40% 1 13.08.2026 -
Ramón Juárez Club America Ativo 137 / 137 40% 1 12.08.2026 -
Jonathan Bamba Chicago Fire Ativo 125 / 127 40% 1 10.08.2026 -
Kasper Dolberg Ajax Ativo 128 / 131 40% 1 08.08.2026 -
Diego Enríquez Sporting Cristal Ativo 112 / 128 40% 1 06.08.2026 -
Leo Ceara Kashima Antlers Ativo 126 / 141 40% 1 06.08.2026 -
Pablo Durán Celta Ativo 118 / 143 40% 1 01.08.2026 -